createdAt,value
2024-03-08T00:01:02.419Z,89.03
2024-03-08T00:04:06.896Z,89.06
2024-03-08T00:07:10.825Z,89.30
2024-03-08T00:10:03.237Z,89.34
2024-03-08T00:12:53.982Z,89.37
2024-03-08T00:16:04.322Z,89.38
2024-03-08T00:18:54.206Z,89.49
2024-03-08T00:21:46.815Z,89.64
2024-03-08T00:24:56.791Z,89.74
2024-03-08T00:27:51.834Z,89.70
2024-03-08T00:31:03.143Z,89.76
2024-03-08T00:33:56.450Z,89.81
2024-03-08T00:37:06.986Z,89.83
2024-03-08T00:40:12.978Z,89.67
2024-03-08T00:43:16.379Z,89.56
2024-03-08T00:46:26.220Z,89.93
2024-03-08T00:49:37.193Z,90.19
2024-03-08T00:52:51.652Z,90.54
2024-03-08T00:56:01.668Z,91.21
2024-03-08T00:59:04.570Z,91.78
2024-03-08T01:02:06.627Z,91.97
2024-03-08T01:05:10.264Z,92.46
2024-03-08T01:08:08.388Z,92.65
2024-03-08T01:11:14.485Z,92.89
2024-03-08T01:14:16.957Z,93.19
2024-03-08T01:17:27.442Z,93.53
2024-03-08T01:20:36.354Z,93.73
2024-03-08T01:23:45.301Z,94.02
2024-03-08T01:26:55.669Z,94.33
2024-03-08T01:30:08.773Z,94.45
2024-03-08T01:33:12.996Z,94.47
2024-03-08T01:36:16.366Z,94.35
2024-03-08T01:39:26.983Z,94.19
2024-03-08T01:42:38.130Z,94.21
2024-03-08T01:45:44.369Z,94.45
2024-03-08T01:48:53.420Z,94.36
2024-03-08T01:51:52.429Z,94.24
2024-03-08T01:54:55.585Z,94.15
2024-03-08T01:58:06.833Z,93.89
2024-03-08T02:01:17.587Z,93.81
2024-03-08T02:04:27.881Z,93.72
2024-03-08T02:07:36.878Z,93.62
2024-03-08T02:10:46.254Z,93.57
2024-03-08T02:13:49.140Z,93.42
2024-03-08T02:17:02.410Z,93.38
2024-03-08T02:20:14.825Z,93.25
2024-03-08T02:23:17.777Z,93.14
2024-03-08T02:26:27.781Z,93.08
2024-03-08T02:29:41.540Z,93.03
2024-03-08T02:32:41.421Z,92.99
2024-03-08T02:35:40.190Z,93.00
2024-03-08T02:38:41.568Z,92.99
2024-03-08T02:41:44.216Z,92.94
2024-03-08T02:44:44.547Z,92.89
2024-03-08T02:47:54.730Z,92.76
2024-03-08T02:50:51.626Z,92.70
2024-03-08T02:54:01.587Z,92.65
2024-03-08T02:56:54.351Z,92.45
2024-03-08T02:59:47.458Z,92.37
2024-03-08T03:02:57.641Z,92.30
2024-03-08T03:05:50.659Z,92.22
2024-03-08T03:08:43.394Z,92.09
2024-03-08T03:11:45.092Z,92.11
2024-03-08T03:14:45.997Z,91.99
2024-03-08T03:17:41.436Z,91.93
2024-03-08T03:20:45.372Z,91.67
2024-03-08T03:23:40.524Z,91.60
2024-03-08T03:26:41.251Z,91.60
2024-03-08T03:29:42.955Z,91.54
2024-03-08T03:32:53.184Z,91.41
2024-03-08T03:35:44.698Z,91.38
2024-03-08T03:38:35.185Z,91.14
2024-03-08T03:41:39.163Z,90.99
2024-03-08T03:44:31.760Z,90.88
2024-03-08T03:47:43.843Z,90.77
2024-03-08T03:50:47.217Z,90.86
2024-03-08T03:53:58.994Z,90.92
2024-03-08T03:57:03.472Z,90.98
2024-03-08T04:00:10.617Z,90.77
2024-03-08T04:03:23.615Z,90.55
2024-03-08T04:06:31.089Z,90.47
2024-03-08T04:09:31.883Z,90.29
2024-03-08T04:12:41.843Z,90.26
2024-03-08T04:15:51.930Z,90.24
2024-03-08T04:18:56.182Z,90.04
2024-03-08T04:22:05.531Z,90.08
2024-03-08T04:25:15.644Z,90.07
2024-03-08T04:28:26.995Z,89.95
2024-03-08T04:31:31.647Z,90.03
2024-03-08T04:34:35.155Z,89.99
2024-03-08T04:37:27.231Z,90.05
2024-03-08T04:40:20.249Z,90.08
2024-03-08T04:43:31.009Z,90.26
2024-03-08T04:46:35.978Z,90.34
2024-03-08T04:49:36.727Z,90.37
2024-03-08T04:52:37.618Z,90.48
2024-03-08T04:55:27.368Z,90.65
2024-03-08T04:58:30.211Z,90.58
2024-03-08T05:01:33.637Z,90.61
2024-03-08T05:04:33.718Z,90.61
2024-03-08T05:07:46.108Z,90.64
2024-03-08T05:10:49.027Z,90.74
2024-03-08T05:14:00.067Z,90.77
2024-03-08T05:17:03.034Z,90.75
2024-03-08T05:20:12.806Z,90.69
2024-03-08T05:23:13.547Z,90.62
2024-03-08T05:26:15.867Z,90.52
2024-03-08T05:29:25.774Z,90.40
2024-03-08T05:32:35.721Z,90.38
2024-03-08T05:35:45.771Z,90.50
2024-03-08T05:38:55.763Z,90.60
2024-03-08T05:41:51.644Z,90.64
2024-03-08T05:45:02.038Z,90.61
2024-03-08T05:48:13.221Z,90.74
2024-03-08T05:51:13.377Z,90.77
2024-03-08T05:54:19.224Z,90.49
2024-03-08T05:57:29.706Z,90.43
2024-03-08T06:00:40.426Z,90.29
2024-03-08T06:03:45.488Z,90.24
2024-03-08T06:06:42.697Z,90.34
2024-03-08T06:09:45.843Z,90.38
2024-03-08T06:12:49.627Z,90.42
2024-03-08T06:15:52.541Z,90.47
2024-03-08T06:19:03.023Z,90.41
2024-03-08T06:22:06.921Z,90.37
2024-03-08T06:25:10.607Z,90.32
2024-03-08T06:28:11.957Z,90.26
2024-03-08T06:31:22.310Z,90.18
2024-03-08T06:34:26.047Z,90.14
2024-03-08T06:37:36.439Z,90.11
2024-03-08T06:40:48.555Z,90.00
2024-03-08T06:44:00.113Z,90.02
2024-03-08T06:47:03.886Z,90.00
2024-03-08T06:50:08.901Z,90.12
2024-03-08T06:53:09.749Z,89.99
2024-03-08T06:56:20.734Z,89.76
2024-03-08T06:59:23.006Z,89.62
2024-03-08T07:02:33.368Z,89.37
2024-03-08T07:05:42.327Z,89.19
2024-03-08T07:08:52.218Z,89.31
2024-03-08T07:12:02.539Z,89.36
2024-03-08T07:15:14.491Z,89.41
2024-03-08T07:18:15.750Z,89.43
2024-03-08T07:21:16.873Z,89.31
2024-03-08T07:24:39.007Z,89.23
2024-03-08T07:27:50.254Z,88.85
2024-03-08T07:31:17.567Z,88.55
2024-03-08T07:34:21.606Z,88.18
2024-03-08T07:37:17.049Z,88.06
2024-03-08T07:40:27.235Z,87.58
2024-03-08T07:43:22.745Z,87.31
2024-03-08T07:46:32.588Z,87.16
2024-03-08T07:49:44.299Z,87.26
2024-03-08T07:52:45.249Z,87.15
2024-03-08T07:55:40.466Z,87.10
2024-03-08T07:58:50.668Z,86.96
2024-03-08T08:01:52.105Z,87.12
2024-03-08T08:05:02.245Z,87.14
2024-03-08T08:08:12.873Z,87.11
2024-03-08T08:11:13.208Z,87.13
2024-03-08T08:14:23.241Z,87.23
2024-03-08T08:17:27.033Z,87.30
2024-03-08T08:20:20.497Z,87.17
2024-03-08T08:23:12.653Z,87.08
2024-03-08T08:26:03.916Z,87.04
2024-03-08T08:28:56.502Z,86.90
2024-03-08T08:31:46.361Z,86.43
2024-03-08T08:34:36.918Z,85.58
2024-03-08T08:37:26.353Z,84.88
2024-03-08T08:40:20.131Z,84.72
2024-03-08T08:43:10.611Z,84.76
2024-03-08T08:46:22.121Z,84.89
2024-03-08T08:49:24.449Z,84.35
2024-03-08T08:52:17.491Z,84.31
2024-03-08T08:55:14.928Z,83.63
2024-03-08T08:58:20.272Z,82.96
2024-03-08T09:01:11.150Z,81.88
2024-03-08T09:04:23.630Z,81.09
2024-03-08T09:07:14.488Z,80.52
2024-03-08T09:13:13.517Z,78.81
2024-03-08T09:16:11.458Z,79.21
2024-03-08T09:19:01.322Z,78.65
2024-03-08T09:21:53.574Z,76.90
2024-03-08T09:24:44.326Z,75.37
2024-03-08T09:27:36.966Z,73.86
2024-03-08T09:30:29.355Z,71.06
2024-03-08T09:33:20.277Z,67.84
2024-03-08T09:36:10.469Z,64.67
2024-03-08T09:38:59.672Z,59.46
2024-03-08T09:41:49.955Z,56.74
2024-03-08T09:44:40.346Z,56.74
2024-03-08T09:47:34.185Z,55.56
2024-03-08T09:50:23.975Z,56.67
2024-03-08T09:53:13.796Z,56.93
2024-03-08T09:56:04.507Z,57.45
2024-03-08T09:59:20.578Z,56.50
2024-03-08T10:02:16.531Z,56.44
2024-03-08T10:05:08.547Z,57.66
2024-03-08T10:07:59.639Z,55.18
2024-03-08T10:10:50.242Z,52.32
2024-03-08T10:13:41.514Z,52.50
2024-03-08T10:16:31.173Z,53.36
2024-03-08T10:19:25.965Z,54.50
2024-03-08T10:22:17.503Z,56.21
2024-03-08T10:25:12.349Z,58.03
2024-03-08T10:28:04.786Z,59.43
2024-03-08T10:30:57.520Z,60.17
2024-03-08T10:33:47.525Z,61.04
2024-03-08T10:36:39.731Z,60.59
2024-03-08T10:39:35.556Z,61.73
2024-03-08T10:42:35.940Z,63.05
2024-03-08T10:45:35.601Z,64.21
2024-03-08T10:48:34.920Z,65.03
2024-03-08T10:51:29.393Z,65.94
2024-03-08T10:54:20.067Z,66.82
2024-03-08T10:57:16.165Z,67.42
2024-03-08T11:00:17.408Z,68.39
2024-03-08T11:03:07.520Z,69.46
2024-03-08T11:06:23.473Z,70.55
2024-03-08T11:09:33.667Z,71.27
2024-03-08T11:12:39.823Z,72.11
2024-03-08T11:15:31.864Z,72.53
2024-03-08T11:18:21.746Z,73.03
2024-03-08T11:21:13.164Z,73.29
2024-03-08T11:24:06.276Z,73.39
2024-03-08T11:27:16.036Z,73.56
2024-03-08T11:30:15.218Z,73.14
2024-03-08T11:33:13.147Z,72.92
2024-03-08T11:36:12.177Z,72.86
2024-03-08T11:39:15.188Z,73.02
2024-03-08T11:42:05.492Z,73.22
2024-03-08T11:44:55.858Z,73.11
2024-03-08T11:47:46.957Z,73.35
2024-03-08T11:50:38.284Z,73.72
2024-03-08T11:53:30.052Z,74.10
2024-03-08T11:56:20.869Z,74.48
2024-03-08T11:59:31.360Z,74.55
2024-03-08T12:02:24.279Z,74.75
2024-03-08T12:05:17.169Z,74.94
2024-03-08T12:08:13.139Z,75.24
2024-03-08T12:11:02.769Z,75.63
2024-03-08T12:13:58.131Z,76.08
2024-03-08T12:16:49.210Z,76.11
2024-03-08T12:22:38.950Z,75.92
2024-03-08T12:25:35.696Z,76.15
2024-03-08T12:28:27.430Z,76.13
2024-03-08T12:31:18.506Z,75.76
2024-03-08T12:34:10.520Z,75.78
2024-03-08T12:37:00.702Z,75.56
2024-03-08T12:39:49.398Z,75.47
2024-03-08T12:42:39.477Z,75.75
2024-03-08T12:45:29.694Z,75.75
2024-03-08T12:48:41.085Z,75.03
2024-03-08T12:51:31.186Z,75.05
2024-03-08T12:54:24.047Z,74.92
2024-03-08T13:00:43.687Z,74.74
2024-03-08T13:03:35.107Z,74.61
2024-03-08T13:06:25.554Z,74.66
2024-03-08T13:09:14.418Z,74.37
2024-03-08T13:12:06.098Z,74.34
2024-03-08T13:14:58.658Z,74.36
2024-03-08T13:17:49.247Z,73.80
2024-03-08T13:20:48.030Z,73.51
2024-03-08T13:23:40.701Z,73.33
2024-03-08T13:26:33.297Z,73.24
2024-03-08T13:29:23.459Z,73.35
2024-03-08T13:32:32.405Z,73.27
2024-03-08T13:35:25.022Z,73.51
2024-03-08T13:38:21.163Z,73.50
2024-03-08T13:41:15.210Z,72.97
2024-03-08T13:44:06.454Z,73.11
2024-03-08T13:47:17.706Z,72.63
2024-03-08T13:50:12.722Z,72.25
2024-03-08T13:53:02.429Z,71.88
2024-03-08T13:55:52.465Z,71.54
2024-03-08T13:58:43.591Z,71.51
2024-03-08T14:01:33.177Z,71.15
2024-03-08T14:04:22.922Z,70.48
2024-03-08T14:07:13.747Z,69.49
2024-03-08T14:10:02.216Z,69.44
2024-03-08T14:12:55.601Z,68.67
2024-03-08T14:15:46.796Z,66.91
2024-03-08T14:18:36.646Z,66.62
2024-03-08T14:21:26.834Z,66.51
2024-03-08T14:24:35.910Z,66.72
2024-03-08T14:27:25.557Z,66.47
2024-03-08T14:30:32.488Z,66.86
2024-03-08T14:33:22.375Z,66.18
2024-03-08T14:36:21.856Z,66.14
2024-03-08T14:39:11.747Z,65.85
2024-03-08T14:42:02.758Z,65.67
2024-03-08T14:44:53.030Z,64.55
2024-03-08T14:47:42.539Z,64.96
2024-03-08T14:50:33.421Z,65.32
2024-03-08T14:53:26.242Z,65.61
2024-03-08T14:56:28.088Z,65.58
2024-03-08T14:59:20.204Z,64.44
2024-03-08T15:02:10.934Z,64.04
2024-03-08T15:05:02.528Z,63.14
2024-03-08T15:07:52.323Z,63.25
2024-03-08T15:10:42.916Z,61.97
2024-03-08T15:13:41.181Z,63.17
2024-03-08T15:16:30.968Z,63.71
2024-03-08T15:19:21.226Z,63.58
2024-03-08T15:22:16.204Z,63.56
2024-03-08T15:25:07.021Z,63.64
2024-03-08T15:27:58.983Z,63.62
2024-03-08T15:30:54.912Z,64.08
2024-03-08T15:33:45.547Z,64.64
2024-03-08T15:36:43.639Z,64.43
2024-03-08T15:39:34.095Z,64.14
2024-03-08T15:42:24.068Z,63.81
2024-03-08T15:45:34.303Z,63.54
2024-03-08T15:48:24.111Z,63.38
2024-03-08T15:51:15.001Z,63.35
2024-03-08T15:54:04.949Z,64.17
2024-03-08T15:57:16.447Z,64.74
2024-03-08T16:00:33.781Z,65.37
2024-03-08T16:03:23.608Z,65.87
2024-03-08T16:06:13.325Z,65.94
2024-03-08T16:09:04.069Z,65.72
2024-03-08T16:11:54.162Z,65.49
2024-03-08T16:14:43.943Z,64.69
2024-03-08T16:17:54.454Z,64.01
2024-03-08T16:20:44.619Z,63.78
2024-03-08T16:23:54.413Z,64.40
2024-03-08T16:26:44.296Z,64.53
2024-03-08T16:29:33.982Z,64.73
2024-03-08T16:32:23.681Z,65.34
2024-03-08T16:35:16.832Z,66.58
2024-03-08T16:38:13.439Z,68.12
2024-03-08T16:41:13.729Z,69.54
2024-03-08T16:44:04.933Z,70.38
2024-03-08T16:46:54.668Z,71.13
2024-03-08T16:50:07.197Z,71.71
2024-03-08T16:53:01.188Z,72.10
2024-03-08T16:56:12.025Z,72.61
2024-03-08T16:59:04.894Z,73.00
2024-03-08T17:01:55.328Z,73.52
2024-03-08T17:04:46.282Z,73.62
2024-03-08T17:07:35.975Z,73.85
2024-03-08T17:10:27.832Z,74.06
2024-03-08T17:13:20.320Z,74.44
2024-03-08T17:16:13.109Z,75.16
2024-03-08T17:19:07.103Z,75.46
2024-03-08T17:21:56.918Z,75.78
2024-03-08T17:24:46.792Z,76.50
2024-03-08T17:27:37.005Z,77.27
2024-03-08T17:30:28.713Z,77.52
2024-03-08T17:33:25.443Z,77.38
2024-03-08T17:36:36.056Z,77.48
2024-03-08T17:39:30.499Z,77.58
2024-03-08T17:42:23.141Z,77.67
2024-03-08T17:45:17.478Z,77.64
2024-03-08T17:48:12.609Z,77.75
2024-03-08T17:51:05.962Z,77.90
2024-03-08T17:54:11.466Z,77.94
2024-03-08T17:57:23.880Z,78.07
2024-03-08T18:00:29.397Z,78.27
2024-03-08T18:03:19.371Z,78.31
2024-03-08T18:06:14.204Z,78.18
2024-03-08T18:09:10.628Z,78.31
2024-03-08T18:12:03.564Z,78.53
2024-03-08T18:14:56.545Z,78.91
2024-03-08T18:17:59.695Z,79.27
2024-03-08T18:21:01.457Z,79.48
2024-03-08T18:23:52.697Z,79.61
2024-03-08T18:26:57.257Z,79.70
2024-03-08T18:29:55.692Z,79.77
2024-03-08T18:32:48.417Z,79.86
2024-03-08T18:35:55.016Z,79.70
2024-03-08T18:39:06.809Z,79.91
2024-03-08T18:41:57.101Z,79.97
2024-03-08T18:44:52.318Z,80.01
2024-03-08T18:47:49.066Z,80.11
2024-03-08T18:50:39.523Z,80.38
2024-03-08T18:53:32.425Z,80.17
2024-03-08T18:56:22.191Z,80.05
2024-03-08T18:59:24.748Z,80.09
2024-03-08T19:02:17.436Z,80.08
2024-03-08T19:05:16.343Z,79.72
2024-03-08T19:08:10.118Z,79.53
2024-03-08T19:11:00.113Z,79.67
2024-03-08T19:13:52.648Z,79.67
2024-03-08T19:16:46.852Z,79.35
2024-03-08T19:19:39.564Z,78.72
2024-03-08T19:22:32.787Z,78.25
2024-03-08T19:25:27.682Z,77.86
2024-03-08T19:28:18.973Z,77.67
2024-03-08T19:31:29.524Z,77.54
2024-03-08T19:34:25.348Z,77.68
2024-03-08T19:37:15.011Z,77.70
2024-03-08T19:40:06.644Z,77.95
2024-03-08T19:43:17.379Z,78.38
2024-03-08T19:49:56.800Z,78.30
2024-03-08T19:52:54.528Z,78.26
2024-03-08T19:55:53.345Z,78.30
2024-03-08T19:58:47.986Z,78.13
2024-03-08T20:02:01.937Z,77.59
2024-03-08T20:05:09.541Z,77.74
2024-03-08T20:08:04.946Z,77.77
2024-03-08T20:11:03.293Z,77.71
2024-03-08T20:13:56.564Z,77.76
2024-03-08T20:16:48.040Z,77.75
2024-03-08T20:19:41.004Z,77.84
2024-03-08T20:22:52.201Z,77.66
2024-03-08T20:25:45.782Z,77.55
2024-03-08T20:28:54.831Z,77.64
2024-03-08T20:31:55.284Z,77.65
2024-03-08T20:35:08.090Z,77.55
2024-03-08T20:38:10.640Z,77.78
2024-03-08T20:41:13.172Z,77.94
2024-03-08T20:44:17.326Z,77.76
2024-03-08T20:47:10.350Z,77.55
2024-03-08T20:50:08.728Z,77.49
2024-03-08T20:53:21.029Z,77.04
2024-03-08T20:56:17.523Z,76.97
2024-03-08T20:59:25.999Z,76.96
2024-03-08T21:02:36.070Z,76.65
2024-03-08T21:05:51.377Z,76.58
2024-03-08T21:08:44.541Z,76.62
2024-03-08T21:11:49.608Z,76.61
2024-03-08T21:15:00.147Z,76.55
2024-03-08T21:17:50.012Z,76.83
2024-03-08T21:20:53.163Z,76.90
2024-03-08T21:24:03.788Z,76.80
2024-03-08T21:27:13.778Z,76.89
2024-03-08T21:30:24.381Z,77.03
2024-03-08T21:33:35.270Z,77.12
2024-03-08T21:36:27.943Z,77.30
2024-03-08T21:39:37.481Z,77.43
2024-03-08T21:42:27.444Z,77.17
2024-03-08T21:45:17.388Z,77.07
2024-03-08T21:48:28.051Z,77.25
2024-03-08T21:51:28.995Z,77.30
2024-03-08T21:54:31.114Z,77.42
2024-03-08T21:57:31.444Z,77.51
2024-03-08T22:00:23.803Z,77.86
2024-03-08T22:03:17.358Z,77.89
2024-03-08T22:06:10.355Z,77.87
2024-03-08T22:09:14.731Z,77.99
2024-03-08T22:12:09.356Z,77.91
2024-03-08T22:15:20.788Z,77.88
2024-03-08T22:18:33.256Z,78.03
2024-03-08T22:21:43.697Z,77.89
2024-03-08T22:24:49.623Z,77.32
2024-03-08T22:28:00.093Z,77.57
2024-03-08T22:31:07.005Z,78.34
2024-03-08T22:33:56.920Z,78.72
2024-03-08T22:37:09.404Z,79.07
2024-03-08T22:40:12.568Z,79.16
2024-03-08T22:43:17.398Z,79.48
2024-03-08T22:46:28.919Z,79.86
2024-03-08T22:49:23.749Z,79.85
2024-03-08T22:52:37.152Z,79.78
2024-03-08T22:55:27.198Z,79.76
2024-03-08T22:58:20.323Z,80.21
2024-03-08T23:01:35.143Z,80.30
2024-03-08T23:04:36.397Z,80.40
2024-03-08T23:07:26.325Z,80.29
2024-03-08T23:10:39.652Z,80.33
2024-03-08T23:13:43.003Z,80.47
2024-03-08T23:16:34.205Z,80.47
2024-03-08T23:19:28.825Z,80.26
2024-03-08T23:22:22.169Z,80.14
2024-03-08T23:25:19.399Z,80.20
2024-03-08T23:28:24.469Z,80.57
2024-03-08T23:31:23.701Z,80.95
2024-03-08T23:34:35.343Z,81.03
2024-03-08T23:37:25.324Z,80.90
2024-03-08T23:40:35.776Z,80.78
2024-03-08T23:43:27.957Z,80.76
2024-03-08T23:46:21.988Z,80.97
2024-03-08T23:49:11.824Z,81.21
2024-03-08T23:52:05.203Z,81.65
2024-03-08T23:55:17.435Z,81.47
2024-03-08T23:58:17.444Z,80.75
